sensor_id;sensor_type;location;lat;lon;timestamp;P1;durP1;ratioP1;P2;durP2;ratioP2
21671;SDS011;10997;52.242;8.168;2022-08-03T00:03:43;5.50;;;4.32;;
21671;SDS011;10997;52.242;8.168;2022-08-03T00:08:44;5.13;;;4.63;;
21671;SDS011;10997;52.242;8.168;2022-08-03T00:13:45;5.13;;;4.63;;
21671;SDS011;10997;52.242;8.168;2022-08-03T00:18:46;4.70;;;4.30;;
21671;SDS011;10997;52.242;8.168;2022-08-03T00:23:46;7.97;;;4.57;;
21671;SDS011;10997;52.242;8.168;2022-08-03T00:28:47;7.45;;;4.30;;
21671;SDS011;10997;52.242;8.168;2022-08-03T00:33:48;7.20;;;4.75;;
21671;SDS011;10997;52.242;8.168;2022-08-03T00:38:49;6.68;;;4.28;;
21671;SDS011;10997;52.242;8.168;2022-08-03T00:43:50;5.15;;;4.65;;
21671;SDS011;10997;52.242;8.168;2022-08-03T00:48:50;5.78;;;4.25;;
21671;SDS011;10997;52.242;8.168;2022-08-03T00:53:52;6.75;;;4.50;;
21671;SDS011;10997;52.242;8.168;2022-08-03T00:58:52;5.25;;;4.25;;
21671;SDS011;10997;52.242;8.168;2022-08-03T01:03:57;4.70;;;4.13;;
21671;SDS011;10997;52.242;8.168;2022-08-03T01:09:35;8.05;;;4.70;;
21671;SDS011;10997;52.242;8.168;2022-08-03T01:14:45;5.80;;;4.43;;
21671;SDS011;10997;52.242;8.168;2022-08-03T01:20:11;4.35;;;3.95;;
21671;SDS011;10997;52.242;8.168;2022-08-03T01:30:52;7.30;;;4.85;;
21671;SDS011;10997;52.242;8.168;2022-08-03T01:36:03;4.93;;;4.20;;
21671;SDS011;10997;52.242;8.168;2022-08-03T01:41:07;4.93;;;4.38;;
21671;SDS011;10997;52.242;8.168;2022-08-03T01:51:14;6.43;;;4.18;;
21671;SDS011;10997;52.242;8.168;2022-08-03T01:56:18;7.07;;;5.40;;
21671;SDS011;10997;52.242;8.168;2022-08-03T02:01:21;7.53;;;5.47;;
21671;SDS011;10997;52.242;8.168;2022-08-03T02:06:23;6.30;;;5.05;;
21671;SDS011;10997;52.242;8.168;2022-08-03T02:11:26;5.57;;;5.03;;
21671;SDS011;10997;52.242;8.168;2022-08-03T02:16:29;7.30;;;5.10;;
21671;SDS011;10997;52.242;8.168;2022-08-03T02:21:34;6.72;;;5.15;;
21671;SDS011;10997;52.242;8.168;2022-08-03T02:26:36;9.10;;;5.85;;
21671;SDS011;10997;52.242;8.168;2022-08-03T02:31:38;8.88;;;5.95;;
21671;SDS011;10997;52.242;8.168;2022-08-03T02:36:43;7.60;;;6.10;;
21671;SDS011;10997;52.242;8.168;2022-08-03T02:41:51;7.95;;;6.20;;
21671;SDS011;10997;52.242;8.168;2022-08-03T02:46:55;9.02;;;6.55;;
21671;SDS011;10997;52.242;8.168;2022-08-03T02:52:02;12.05;;;6.65;;
21671;SDS011;10997;52.242;8.168;2022-08-03T03:02:09;9.63;;;7.30;;
21671;SDS011;10997;52.242;8.168;2022-08-03T03:07:13;10.10;;;8.15;;
21671;SDS011;10997;52.242;8.168;2022-08-03T03:12:16;10.20;;;7.78;;
21671;SDS011;10997;52.242;8.168;2022-08-03T03:17:18;8.48;;;7.55;;
21671;SDS011;10997;52.242;8.168;2022-08-03T03:22:19;9.48;;;8.30;;
21671;SDS011;10997;52.242;8.168;2022-08-03T03:27:22;9.00;;;7.75;;
21671;SDS011;10997;52.242;8.168;2022-08-03T03:32:23;11.05;;;7.57;;
21671;SDS011;10997;52.242;8.168;2022-08-03T03:37:26;10.40;;;8.10;;
21671;SDS011;10997;52.242;8.168;2022-08-03T03:42:27;11.20;;;8.27;;
21671;SDS011;10997;52.242;8.168;2022-08-03T03:47:28;10.25;;;8.10;;
21671;SDS011;10997;52.242;8.168;2022-08-03T03:52:30;8.80;;;7.35;;
21671;SDS011;10997;52.242;8.168;2022-08-03T03:57:32;7.88;;;6.65;;
21671;SDS011;10997;52.242;8.168;2022-08-03T04:02:34;8.23;;;6.38;;
21671;SDS011;10997;52.242;8.168;2022-08-03T04:07:38;10.75;;;7.93;;
21671;SDS011;10997;52.242;8.168;2022-08-03T04:13:13;10.95;;;8.40;;
21671;SDS011;10997;52.242;8.168;2022-08-03T04:18:15;11.93;;;7.82;;
21671;SDS011;10997;52.242;8.168;2022-08-03T04:23:19;10.43;;;8.35;;
21671;SDS011;10997;52.242;8.168;2022-08-03T04:28:21;10.43;;;8.63;;
21671;SDS011;10997;52.242;8.168;2022-08-03T04:33:23;12.73;;;8.35;;
21671;SDS011;10997;52.242;8.168;2022-08-03T04:38:26;10.80;;;8.02;;
21671;SDS011;10997;52.242;8.168;2022-08-03T04:43:31;9.85;;;8.27;;
21671;SDS011;10997;52.242;8.168;2022-08-03T04:48:33;12.27;;;8.77;;
21671;SDS011;10997;52.242;8.168;2022-08-03T04:53:34;13.32;;;8.95;;
21671;SDS011;10997;52.242;8.168;2022-08-03T04:58:34;10.65;;;9.13;;
21671;SDS011;10997;52.242;8.168;2022-08-03T05:03:35;11.40;;;9.35;;
21671;SDS011;10997;52.242;8.168;2022-08-03T05:08:36;13.68;;;9.00;;
21671;SDS011;10997;52.242;8.168;2022-08-03T05:13:37;10.23;;;9.18;;
21671;SDS011;10997;52.242;8.168;2022-08-03T05:18:37;9.88;;;8.23;;
21671;SDS011;10997;52.242;8.168;2022-08-03T05:23:39;11.48;;;8.63;;
21671;SDS011;10997;52.242;8.168;2022-08-03T05:28:40;10.80;;;9.15;;
21671;SDS011;10997;52.242;8.168;2022-08-03T05:33:41;10.77;;;8.13;;
21671;SDS011;10997;52.242;8.168;2022-08-03T05:38:43;9.45;;;7.32;;
21671;SDS011;10997;52.242;8.168;2022-08-03T05:43:44;8.85;;;6.10;;
21671;SDS011;10997;52.242;8.168;2022-08-03T05:48:45;8.40;;;4.88;;
21671;SDS011;10997;52.242;8.168;2022-08-03T05:53:46;8.90;;;4.50;;
21671;SDS011;10997;52.242;8.168;2022-08-03T05:58:47;9.75;;;4.30;;
21671;SDS011;10997;52.242;8.168;2022-08-03T06:03:48;11.00;;;4.55;;
21671;SDS011;10997;52.242;8.168;2022-08-03T06:08:50;5.60;;;4.28;;
21671;SDS011;10997;52.242;8.168;2022-08-03T06:13:51;9.88;;;4.07;;
21671;SDS011;10997;52.242;8.168;2022-08-03T06:18:52;7.78;;;4.30;;
21671;SDS011;10997;52.242;8.168;2022-08-03T06:23:53;8.60;;;4.60;;
21671;SDS011;10997;52.242;8.168;2022-08-03T06:28:53;7.15;;;4.20;;
21671;SDS011;10997;52.242;8.168;2022-08-03T06:33:54;8.07;;;4.00;;
21671;SDS011;10997;52.242;8.168;2022-08-03T06:38:55;9.25;;;4.95;;
21671;SDS011;10997;52.242;8.168;2022-08-03T06:43:57;10.20;;;3.92;;
21671;SDS011;10997;52.242;8.168;2022-08-03T06:48:58;10.80;;;4.82;;
21671;SDS011;10997;52.242;8.168;2022-08-03T06:53:58;10.20;;;4.18;;
21671;SDS011;10997;52.242;8.168;2022-08-03T06:58:59;7.90;;;3.78;;
21671;SDS011;10997;52.242;8.168;2022-08-03T07:04:00;5.20;;;3.42;;
21671;SDS011;10997;52.242;8.168;2022-08-03T07:09:01;6.05;;;3.42;;
21671;SDS011;10997;52.242;8.168;2022-08-03T07:14:01;6.18;;;3.58;;
21671;SDS011;10997;52.242;8.168;2022-08-03T07:19:03;7.47;;;3.20;;
21671;SDS011;10997;52.242;8.168;2022-08-03T07:24:04;12.70;;;3.33;;
21671;SDS011;10997;52.242;8.168;2022-08-03T07:29:05;13.10;;;3.30;;
21671;SDS011;10997;52.242;8.168;2022-08-03T07:34:05;6.60;;;3.55;;
21671;SDS011;10997;52.242;8.168;2022-08-03T07:39:06;7.15;;;3.50;;
21671;SDS011;10997;52.242;8.168;2022-08-03T07:44:07;5.35;;;3.20;;
21671;SDS011;10997;52.242;8.168;2022-08-03T07:49:07;10.55;;;3.10;;
21671;SDS011;10997;52.242;8.168;2022-08-03T07:54:08;6.88;;;3.22;;
21671;SDS011;10997;52.242;8.168;2022-08-03T07:59:09;10.15;;;3.40;;
21671;SDS011;10997;52.242;8.168;2022-08-03T08:04:09;7.32;;;3.50;;
21671;SDS011;10997;52.242;8.168;2022-08-03T08:09:10;9.10;;;3.35;;
21671;SDS011;10997;52.242;8.168;2022-08-03T08:14:11;6.57;;;3.15;;
21671;SDS011;10997;52.242;8.168;2022-08-03T08:19:11;7.10;;;3.40;;
21671;SDS011;10997;52.242;8.168;2022-08-03T08:24:13;9.23;;;3.30;;
21671;SDS011;10997;52.242;8.168;2022-08-03T08:29:14;7.20;;;3.60;;
21671;SDS011;10997;52.242;8.168;2022-08-03T08:34:15;7.45;;;2.97;;
21671;SDS011;10997;52.242;8.168;2022-08-03T08:39:15;6.57;;;2.85;;
21671;SDS011;10997;52.242;8.168;2022-08-03T08:44:16;4.63;;;2.80;;
21671;SDS011;10997;52.242;8.168;2022-08-03T08:49:17;6.45;;;3.10;;
21671;SDS011;10997;52.242;8.168;2022-08-03T08:54:19;6.75;;;2.60;;
21671;SDS011;10997;52.242;8.168;2022-08-03T08:59:21;6.75;;;3.10;;
21671;SDS011;10997;52.242;8.168;2022-08-03T09:04:23;6.60;;;2.50;;
21671;SDS011;10997;52.242;8.168;2022-08-03T09:09:24;7.47;;;2.60;;
21671;SDS011;10997;52.242;8.168;2022-08-03T09:14:24;4.88;;;2.88;;
21671;SDS011;10997;52.242;8.168;2022-08-03T09:19:26;10.15;;;2.97;;
21671;SDS011;10997;52.242;8.168;2022-08-03T09:24:27;4.35;;;2.45;;
21671;SDS011;10997;52.242;8.168;2022-08-03T09:29:30;8.50;;;2.30;;
21671;SDS011;10997;52.242;8.168;2022-08-03T09:34:31;7.10;;;2.70;;
21671;SDS011;10997;52.242;8.168;2022-08-03T09:39:32;11.77;;;2.85;;
21671;SDS011;10997;52.242;8.168;2022-08-03T09:44:40;7.95;;;2.53;;
21671;SDS011;10997;52.242;8.168;2022-08-03T09:49:42;11.65;;;3.00;;
21671;SDS011;10997;52.242;8.168;2022-08-03T09:55:02;9.82;;;2.60;;
21671;SDS011;10997;52.242;8.168;2022-08-03T10:05:11;6.65;;;2.78;;
21671;SDS011;10997;52.242;8.168;2022-08-03T10:10:13;7.40;;;2.90;;
21671;SDS011;10997;52.242;8.168;2022-08-03T10:15:14;5.85;;;2.65;;
21671;SDS011;10997;52.242;8.168;2022-08-03T10:20:15;5.22;;;2.67;;
21671;SDS011;10997;52.242;8.168;2022-08-03T10:25:15;10.55;;;2.53;;
21671;SDS011;10997;52.242;8.168;2022-08-03T10:30:16;3.90;;;2.67;;
21671;SDS011;10997;52.242;8.168;2022-08-03T10:35:19;12.10;;;3.10;;
21671;SDS011;10997;52.242;8.168;2022-08-03T10:40:21;8.63;;;2.50;;
21671;SDS011;10997;52.242;8.168;2022-08-03T10:45:23;8.35;;;3.15;;
21671;SDS011;10997;52.242;8.168;2022-08-03T10:50:25;6.13;;;2.55;;
21671;SDS011;10997;52.242;8.168;2022-08-03T10:55:34;6.35;;;2.83;;
21671;SDS011;10997;52.242;8.168;2022-08-03T11:00:57;11.07;;;2.72;;
21671;SDS011;10997;52.242;8.168;2022-08-03T11:06:16;10.50;;;2.60;;
21671;SDS011;10997;52.242;8.168;2022-08-03T11:16:20;8.93;;;2.50;;
21671;SDS011;10997;52.242;8.168;2022-08-03T11:32:49;7.70;;;2.70;;
21671;SDS011;10997;52.242;8.168;2022-08-03T11:42:55;10.43;;;3.05;;
21671;SDS011;10997;52.242;8.168;2022-08-03T11:47:56;7.13;;;2.65;;
21671;SDS011;10997;52.242;8.168;2022-08-03T11:52:58;6.78;;;2.67;;
21671;SDS011;10997;52.242;8.168;2022-08-03T11:57:59;9.50;;;2.70;;
21671;SDS011;10997;52.242;8.168;2022-08-03T12:03:01;12.43;;;2.60;;
21671;SDS011;10997;52.242;8.168;2022-08-03T12:08:03;10.82;;;2.60;;
21671;SDS011;10997;52.242;8.168;2022-08-03T12:13:05;6.05;;;2.25;;
21671;SDS011;10997;52.242;8.168;2022-08-03T12:18:11;9.63;;;2.20;;
21671;SDS011;10997;52.242;8.168;2022-08-03T12:23:14;9.57;;;2.40;;
21671;SDS011;10997;52.242;8.168;2022-08-03T12:28:16;7.70;;;2.45;;
21671;SDS011;10997;52.242;8.168;2022-08-03T12:33:21;12.02;;;2.60;;
21671;SDS011;10997;52.242;8.168;2022-08-03T12:38:25;6.07;;;2.10;;
21671;SDS011;10997;52.242;8.168;2022-08-03T12:43:26;8.43;;;2.35;;
21671;SDS011;10997;52.242;8.168;2022-08-03T12:48:27;11.20;;;2.10;;
21671;SDS011;10997;52.242;8.168;2022-08-03T12:53:28;6.95;;;2.17;;
21671;SDS011;10997;52.242;8.168;2022-08-03T12:58:30;9.88;;;2.50;;
21671;SDS011;10997;52.242;8.168;2022-08-03T13:03:38;6.55;;;1.80;;
21671;SDS011;10997;52.242;8.168;2022-08-03T13:08:40;6.43;;;1.90;;
21671;SDS011;10997;52.242;8.168;2022-08-03T13:13:41;7.90;;;1.95;;
21671;SDS011;10997;52.242;8.168;2022-08-03T13:18:42;7.75;;;2.28;;
21671;SDS011;10997;52.242;8.168;2022-08-03T13:23:45;4.97;;;2.00;;
21671;SDS011;10997;52.242;8.168;2022-08-03T13:28:46;5.82;;;1.70;;
21671;SDS011;10997;52.242;8.168;2022-08-03T13:33:47;4.85;;;1.75;;
21671;SDS011;10997;52.242;8.168;2022-08-03T13:38:47;9.85;;;1.83;;
21671;SDS011;10997;52.242;8.168;2022-08-03T13:43:48;8.63;;;1.70;;
21671;SDS011;10997;52.242;8.168;2022-08-03T13:48:49;7.47;;;1.73;;
21671;SDS011;10997;52.242;8.168;2022-08-03T13:53:50;4.22;;;1.73;;
21671;SDS011;10997;52.242;8.168;2022-08-03T13:58:51;6.88;;;1.80;;
21671;SDS011;10997;52.242;8.168;2022-08-03T14:03:52;8.90;;;2.40;;
21671;SDS011;10997;52.242;8.168;2022-08-03T14:08:53;7.28;;;1.95;;
21671;SDS011;10997;52.242;8.168;2022-08-03T14:13:55;5.80;;;1.98;;
21671;SDS011;10997;52.242;8.168;2022-08-03T14:18:56;6.00;;;2.10;;
21671;SDS011;10997;52.242;8.168;2022-08-03T14:23:56;7.18;;;2.00;;
21671;SDS011;10997;52.242;8.168;2022-08-03T14:28:57;7.88;;;2.20;;
21671;SDS011;10997;52.242;8.168;2022-08-03T14:33:58;9.93;;;2.47;;
21671;SDS011;10997;52.242;8.168;2022-08-03T14:39:00;7.88;;;2.58;;
21671;SDS011;10997;52.242;8.168;2022-08-03T14:44:00;5.53;;;1.92;;
21671;SDS011;10997;52.242;8.168;2022-08-03T14:49:01;9.10;;;2.38;;
21671;SDS011;10997;52.242;8.168;2022-08-03T14:54:02;7.60;;;2.28;;
21671;SDS011;10997;52.242;8.168;2022-08-03T14:59:03;5.18;;;2.20;;
21671;SDS011;10997;52.242;8.168;2022-08-03T15:04:03;8.77;;;2.10;;
21671;SDS011;10997;52.242;8.168;2022-08-03T15:09:04;10.43;;;2.40;;
21671;SDS011;10997;52.242;8.168;2022-08-03T15:14:05;10.80;;;2.30;;
21671;SDS011;10997;52.242;8.168;2022-08-03T15:19:06;6.80;;;2.30;;
21671;SDS011;10997;52.242;8.168;2022-08-03T15:24:06;8.82;;;2.42;;
21671;SDS011;10997;52.242;8.168;2022-08-03T15:29:07;6.60;;;2.58;;
21671;SDS011;10997;52.242;8.168;2022-08-03T15:34:08;8.68;;;2.38;;
21671;SDS011;10997;52.242;8.168;2022-08-03T15:39:10;10.82;;;2.40;;
21671;SDS011;10997;52.242;8.168;2022-08-03T15:44:11;10.32;;;2.65;;
21671;SDS011;10997;52.242;8.168;2022-08-03T15:49:12;8.95;;;2.35;;
21671;SDS011;10997;52.242;8.168;2022-08-03T15:54:13;7.00;;;2.22;;
21671;SDS011;10997;52.242;8.168;2022-08-03T15:59:13;11.60;;;2.42;;
21671;SDS011;10997;52.242;8.168;2022-08-03T16:04:14;9.52;;;2.30;;
21671;SDS011;10997;52.242;8.168;2022-08-03T16:09:15;7.97;;;2.00;;
21671;SDS011;10997;52.242;8.168;2022-08-03T16:14:15;8.82;;;2.03;;
21671;SDS011;10997;52.242;8.168;2022-08-03T16:19:16;9.75;;;2.20;;
21671;SDS011;10997;52.242;8.168;2022-08-03T16:24:17;11.40;;;3.30;;
21671;SDS011;10997;52.242;8.168;2022-08-03T16:29:17;7.70;;;2.10;;
21671;SDS011;10997;52.242;8.168;2022-08-03T16:34:18;8.48;;;2.15;;
21671;SDS011;10997;52.242;8.168;2022-08-03T16:39:20;10.43;;;2.67;;
21671;SDS011;10997;52.242;8.168;2022-08-03T16:44:20;12.43;;;2.38;;
21671;SDS011;10997;52.242;8.168;2022-08-03T16:49:21;9.52;;;2.00;;
21671;SDS011;10997;52.242;8.168;2022-08-03T16:54:21;10.20;;;1.90;;
21671;SDS011;10997;52.242;8.168;2022-08-03T16:59:22;13.50;;;2.70;;
21671;SDS011;10997;52.242;8.168;2022-08-03T17:04:23;7.03;;;2.13;;
21671;SDS011;10997;52.242;8.168;2022-08-03T17:09:24;9.27;;;2.30;;
21671;SDS011;10997;52.242;8.168;2022-08-03T17:14:25;9.65;;;1.88;;
21671;SDS011;10997;52.242;8.168;2022-08-03T17:19:26;7.65;;;2.30;;
21671;SDS011;10997;52.242;8.168;2022-08-03T17:24:32;5.30;;;1.52;;
21671;SDS011;10997;52.242;8.168;2022-08-03T17:29:37;7.40;;;1.70;;
21671;SDS011;10997;52.242;8.168;2022-08-03T17:34:41;7.93;;;1.73;;
21671;SDS011;10997;52.242;8.168;2022-08-03T17:39:43;7.93;;;1.70;;
21671;SDS011;10997;52.242;8.168;2022-08-03T17:44:45;9.80;;;2.13;;
21671;SDS011;10997;52.242;8.168;2022-08-03T17:49:46;9.30;;;1.88;;
21671;SDS011;10997;52.242;8.168;2022-08-03T17:55:00;8.15;;;1.77;;
21671;SDS011;10997;52.242;8.168;2022-08-03T18:05:24;8.75;;;1.70;;
21671;SDS011;10997;52.242;8.168;2022-08-03T18:10:28;10.73;;;1.90;;
21671;SDS011;10997;52.242;8.168;2022-08-03T18:15:51;7.28;;;2.22;;
21671;SDS011;10997;52.242;8.168;2022-08-03T18:20:59;5.70;;;1.77;;
21671;SDS011;10997;52.242;8.168;2022-08-03T18:26:03;9.25;;;1.77;;
21671;SDS011;10997;52.242;8.168;2022-08-03T18:31:09;12.07;;;2.15;;
21671;SDS011;10997;52.242;8.168;2022-08-03T18:36:12;8.02;;;1.85;;
21671;SDS011;10997;52.242;8.168;2022-08-03T18:41:14;7.80;;;1.98;;
21671;SDS011;10997;52.242;8.168;2022-08-03T18:46:33;14.25;;;1.77;;
21671;SDS011;10997;52.242;8.168;2022-08-03T18:51:45;13.15;;;2.10;;
21671;SDS011;10997;52.242;8.168;2022-08-03T18:56:52;9.50;;;2.10;;
21671;SDS011;10997;52.242;8.168;2022-08-03T19:01:53;10.77;;;2.30;;
21671;SDS011;10997;52.242;8.168;2022-08-03T19:07:00;10.45;;;2.22;;
21671;SDS011;10997;52.242;8.168;2022-08-03T19:12:11;10.38;;;2.70;;
21671;SDS011;10997;52.242;8.168;2022-08-03T19:17:33;14.00;;;2.45;;
21671;SDS011;10997;52.242;8.168;2022-08-03T19:22:38;8.90;;;2.22;;
21671;SDS011;10997;52.242;8.168;2022-08-03T19:27:39;11.65;;;2.40;;
21671;SDS011;10997;52.242;8.168;2022-08-03T19:32:44;10.77;;;2.40;;
21671;SDS011;10997;52.242;8.168;2022-08-03T19:37:45;12.93;;;3.20;;
21671;SDS011;10997;52.242;8.168;2022-08-03T19:42:46;11.75;;;2.70;;
21671;SDS011;10997;52.242;8.168;2022-08-03T19:47:55;11.13;;;2.30;;
21671;SDS011;10997;52.242;8.168;2022-08-03T19:53:02;10.25;;;2.47;;
21671;SDS011;10997;52.242;8.168;2022-08-03T19:58:08;11.02;;;2.20;;
21671;SDS011;10997;52.242;8.168;2022-08-03T20:03:09;12.07;;;2.25;;
21671;SDS011;10997;52.242;8.168;2022-08-03T20:08:10;10.23;;;2.55;;
21671;SDS011;10997;52.242;8.168;2022-08-03T20:13:11;10.95;;;2.20;;
21671;SDS011;10997;52.242;8.168;2022-08-03T20:18:14;8.15;;;2.55;;
21671;SDS011;10997;52.242;8.168;2022-08-03T20:23:16;9.45;;;2.30;;
21671;SDS011;10997;52.242;8.168;2022-08-03T20:28:24;12.52;;;2.60;;
21671;SDS011;10997;52.242;8.168;2022-08-03T20:33:38;9.98;;;2.38;;
21671;SDS011;10997;52.242;8.168;2022-08-03T20:38:39;9.88;;;2.20;;
21671;SDS011;10997;52.242;8.168;2022-08-03T20:43:40;6.32;;;2.40;;
21671;SDS011;10997;52.242;8.168;2022-08-03T20:48:41;8.52;;;2.47;;
21671;SDS011;10997;52.242;8.168;2022-08-03T20:53:44;8.23;;;2.00;;
21671;SDS011;10997;52.242;8.168;2022-08-03T20:58:45;7.53;;;2.40;;
21671;SDS011;10997;52.242;8.168;2022-08-03T21:03:48;6.25;;;2.00;;
21671;SDS011;10997;52.242;8.168;2022-08-03T21:08:49;12.68;;;2.78;;
21671;SDS011;10997;52.242;8.168;2022-08-03T21:13:55;8.57;;;2.30;;
21671;SDS011;10997;52.242;8.168;2022-08-03T21:19:01;7.75;;;2.65;;
21671;SDS011;10997;52.242;8.168;2022-08-03T21:24:03;10.18;;;3.00;;
21671;SDS011;10997;52.242;8.168;2022-08-03T21:29:04;7.10;;;2.60;;
21671;SDS011;10997;52.242;8.168;2022-08-03T21:34:05;10.85;;;2.55;;
21671;SDS011;10997;52.242;8.168;2022-08-03T21:39:07;10.95;;;2.53;;
21671;SDS011;10997;52.242;8.168;2022-08-03T21:44:08;8.15;;;2.78;;
21671;SDS011;10997;52.242;8.168;2022-08-03T21:49:10;10.15;;;2.67;;
21671;SDS011;10997;52.242;8.168;2022-08-03T21:54:12;10.60;;;2.65;;
21671;SDS011;10997;52.242;8.168;2022-08-03T21:59:17;7.80;;;2.65;;
21671;SDS011;10997;52.242;8.168;2022-08-03T22:04:19;12.25;;;2.92;;
21671;SDS011;10997;52.242;8.168;2022-08-03T22:09:21;16.40;;;2.97;;
21671;SDS011;10997;52.242;8.168;2022-08-03T22:14:21;13.07;;;2.80;;
21671;SDS011;10997;52.242;8.168;2022-08-03T22:19:22;9.57;;;2.80;;
21671;SDS011;10997;52.242;8.168;2022-08-03T22:24:23;9.93;;;2.75;;
21671;SDS011;10997;52.242;8.168;2022-08-03T22:29:27;18.25;;;3.20;;
21671;SDS011;10997;52.242;8.168;2022-08-03T22:34:30;12.50;;;3.08;;
21671;SDS011;10997;52.242;8.168;2022-08-03T22:39:32;14.52;;;2.90;;
21671;SDS011;10997;52.242;8.168;2022-08-03T22:44:34;10.30;;;2.92;;
21671;SDS011;10997;52.242;8.168;2022-08-03T22:49:35;10.70;;;2.42;;
21671;SDS011;10997;52.242;8.168;2022-08-03T22:54:37;13.40;;;2.60;;
21671;SDS011;10997;52.242;8.168;2022-08-03T22:59:38;9.77;;;2.63;;
21671;SDS011;10997;52.242;8.168;2022-08-03T23:04:39;10.85;;;2.90;;
21671;SDS011;10997;52.242;8.168;2022-08-03T23:09:42;9.65;;;2.47;;
21671;SDS011;10997;52.242;8.168;2022-08-03T23:14:47;9.40;;;2.95;;
21671;SDS011;10997;52.242;8.168;2022-08-03T23:19:52;9.77;;;2.90;;
21671;SDS011;10997;52.242;8.168;2022-08-03T23:24:55;7.43;;;3.08;;
21671;SDS011;10997;52.242;8.168;2022-08-03T23:29:57;11.88;;;3.40;;
21671;SDS011;10997;52.242;8.168;2022-08-03T23:35:00;13.07;;;3.03;;
21671;SDS011;10997;52.242;8.168;2022-08-03T23:40:23;10.90;;;2.90;;
21671;SDS011;10997;52.242;8.168;2022-08-03T23:45:27;10.60;;;2.95;;
21671;SDS011;10997;52.242;8.168;2022-08-03T23:50:33;9.02;;;2.88;;
